createdAt,value
2022-11-28T00:00:00.754Z,108.50
2022-11-28T00:03:03.817Z,107.68
2022-11-28T00:06:08.517Z,107.95
2022-11-28T00:09:12.127Z,108.07
2022-11-28T00:12:15.122Z,106.72
2022-11-28T00:15:19.806Z,105.53
2022-11-28T00:18:22.903Z,102.38
2022-11-28T00:21:25.947Z,104.28
2022-11-28T00:24:28.945Z,102.72
2022-11-28T00:27:31.901Z,101.50
2022-11-28T00:30:40.318Z,100.72
2022-11-28T00:33:43.800Z,98.57
2022-11-28T00:36:48.622Z,97.05
2022-11-28T00:39:51.647Z,97.97
2022-11-28T00:42:54.594Z,96.30
2022-11-28T00:45:59.014Z,95.93
2022-11-28T00:49:02.086Z,95.45
2022-11-28T00:52:05.365Z,95.20
2022-11-28T00:55:08.982Z,96.22
2022-11-28T00:58:12.031Z,94.45
2022-11-28T01:01:18.278Z,91.25
2022-11-28T01:04:21.299Z,91.43
2022-11-28T01:07:24.387Z,91.50
2022-11-28T01:10:28.019Z,89.10
2022-11-28T01:13:31.058Z,89.38
2022-11-28T01:16:35.416Z,88.15
2022-11-28T01:19:38.643Z,87.03
2022-11-28T01:22:41.553Z,85.07
2022-11-28T01:25:44.491Z,85.15
2022-11-28T01:28:48.093Z,83.45
2022-11-28T01:31:52.520Z,81.05
2022-11-28T01:34:55.523Z,82.45
2022-11-28T01:37:58.488Z,81.32
2022-11-28T01:41:02.616Z,80.03
2022-11-28T01:44:30.337Z,79.82
2022-11-28T01:47:35.823Z,79.78
2022-11-28T01:50:39.717Z,76.63
2022-11-28T01:53:46.765Z,76.40
2022-11-28T01:56:53.909Z,75.50
2022-11-28T02:00:02.048Z,72.88
2022-11-28T02:03:22.762Z,72.10
2022-11-28T02:06:27.065Z,69.50
2022-11-28T02:09:30.012Z,68.15
2022-11-28T02:12:46.572Z,69.47
2022-11-28T02:16:08.282Z,65.93
2022-11-28T02:19:43.640Z,67.00
2022-11-28T02:22:54.614Z,66.35
2022-11-28T02:26:22.742Z,65.05
2022-11-28T02:30:04.654Z,65.53
2022-11-28T02:33:24.450Z,62.58
2022-11-28T02:36:33.182Z,62.20
2022-11-28T02:39:46.395Z,62.70
2022-11-28T02:43:02.547Z,60.50
2022-11-28T02:46:11.606Z,60.97
2022-11-28T02:49:21.120Z,59.88
2022-11-28T02:52:30.017Z,58.45
2022-11-28T02:55:33.583Z,58.53
2022-11-28T02:58:37.481Z,57.60
2022-11-28T03:01:40.607Z,56.72
2022-11-28T03:04:55.152Z,57.03
2022-11-28T03:08:07.143Z,56.80
2022-11-28T03:11:19.613Z,53.92
2022-11-28T03:14:34.501Z,54.28
2022-11-28T03:17:47.174Z,52.58
2022-11-28T03:20:56.444Z,52.10
2022-11-28T03:24:04.240Z,51.58
2022-11-28T03:27:11.414Z,51.28
2022-11-28T03:30:21.643Z,51.90
2022-11-28T03:33:28.851Z,49.63
2022-11-28T03:36:39.285Z,49.50
2022-11-28T03:39:47.512Z,48.92
2022-11-28T03:42:55.855Z,47.50
2022-11-28T03:46:04.780Z,44.50
2022-11-28T03:49:10.262Z,44.25
2022-11-28T03:52:19.450Z,43.55
2022-11-28T03:55:28.728Z,43.60
2022-11-28T03:58:36.797Z,44.65
2022-11-28T04:01:49.069Z,43.92
2022-11-28T04:05:00.490Z,42.15
2022-11-28T04:08:15.230Z,42.40
2022-11-28T04:11:21.557Z,41.58
2022-11-28T04:14:30.589Z,40.28
2022-11-28T04:17:39.018Z,40.55
2022-11-28T04:20:47.244Z,40.55
2022-11-28T04:23:55.084Z,40.05
2022-11-28T04:27:03.394Z,40.50
2022-11-28T04:30:08.927Z,39.25
2022-11-28T04:33:13.758Z,38.03
2022-11-28T04:36:20.086Z,38.00
2022-11-28T04:39:26.778Z,37.83
2022-11-28T04:42:36.198Z,37.47
2022-11-28T04:45:44.929Z,37.53
2022-11-28T04:48:48.174Z,37.50
2022-11-28T04:51:59.199Z,36.97
2022-11-28T04:55:10.385Z,37.05
2022-11-28T04:58:18.031Z,35.10
2022-11-28T05:01:25.448Z,36.20
2022-11-28T05:04:28.671Z,34.42
2022-11-28T05:07:31.820Z,35.22
2022-11-28T05:10:36.249Z,34.33
2022-11-28T05:13:39.230Z,34.58
2022-11-28T05:16:42.255Z,33.80
2022-11-28T05:19:45.365Z,33.08
2022-11-28T05:22:48.327Z,32.15
2022-11-28T05:25:52.648Z,32.72
2022-11-28T05:28:57.058Z,31.73
2022-11-28T05:32:00.086Z,32.72
2022-11-28T05:35:03.451Z,32.80
2022-11-28T05:38:12.102Z,31.83
2022-11-28T05:41:29.109Z,31.27
2022-11-28T05:44:32.110Z,30.80
2022-11-28T05:47:35.350Z,30.80
2022-11-28T05:50:40.233Z,30.45
2022-11-28T05:53:43.393Z,31.02
2022-11-28T05:56:47.820Z,30.50
2022-11-28T05:59:51.156Z,29.70
2022-11-28T06:02:58.432Z,29.67
2022-11-28T06:06:04.034Z,29.67
2022-11-28T06:09:07.716Z,29.90
2022-11-28T06:12:12.115Z,29.85
2022-11-28T06:15:15.157Z,28.52
2022-11-28T06:18:18.194Z,28.85
2022-11-28T06:21:21.469Z,27.45
2022-11-28T06:24:24.471Z,28.73
2022-11-28T06:27:28.914Z,28.30
2022-11-28T06:30:31.833Z,27.27
2022-11-28T06:33:34.790Z,28.20
2022-11-28T06:36:37.726Z,27.70
2022-11-28T06:39:40.989Z,26.85
2022-11-28T06:42:48.814Z,25.65
2022-11-28T06:45:51.885Z,26.20
2022-11-28T06:48:54.966Z,26.55
2022-11-28T06:51:57.926Z,25.38
2022-11-28T06:55:00.866Z,24.20
2022-11-28T06:58:05.205Z,24.55
2022-11-28T07:01:09.779Z,23.45
2022-11-28T07:04:12.777Z,24.67
2022-11-28T07:07:16.794Z,23.15
2022-11-28T07:10:20.325Z,24.42
2022-11-28T07:13:24.772Z,24.20
2022-11-28T07:16:30.206Z,22.30
2022-11-28T07:19:33.261Z,22.67
2022-11-28T07:22:36.214Z,22.50
2022-11-28T07:25:39.178Z,22.02
2022-11-28T07:28:44.195Z,21.50
2022-11-28T07:31:47.316Z,21.27
2022-11-28T07:34:50.483Z,20.17
2022-11-28T07:37:53.518Z,20.48
2022-11-28T07:40:56.883Z,17.52
2022-11-28T07:44:02.825Z,15.18
2022-11-28T07:47:06.104Z,14.77
2022-11-28T07:50:10.186Z,14.07
2022-11-28T07:53:13.219Z,13.52
2022-11-28T07:56:18.217Z,12.73
2022-11-28T07:59:22.635Z,12.70
2022-11-28T08:02:27.249Z,12.30
2022-11-28T08:05:30.447Z,12.23
2022-11-28T08:08:34.074Z,11.60
2022-11-28T08:11:37.154Z,12.40
2022-11-28T08:14:41.630Z,11.50
2022-11-28T08:17:44.906Z,12.05
2022-11-28T08:20:47.952Z,11.68
2022-11-28T08:23:52.551Z,12.85
2022-11-28T08:26:55.638Z,11.18
2022-11-28T08:30:00.077Z,11.57
2022-11-28T08:33:03.151Z,11.68
2022-11-28T08:36:07.174Z,12.27
2022-11-28T08:39:26.500Z,11.93
2022-11-28T08:42:29.783Z,11.80
2022-11-28T08:45:35.646Z,11.82
2022-11-28T08:48:40.437Z,11.52
2022-11-28T08:51:43.418Z,11.00
2022-11-28T08:54:46.775Z,11.48
2022-11-28T08:57:49.789Z,11.35
2022-11-28T09:00:54.283Z,12.50
2022-11-28T09:03:57.868Z,11.50
2022-11-28T09:07:00.916Z,11.38
2022-11-28T09:10:04.460Z,12.30
2022-11-28T09:13:08.935Z,11.65
2022-11-28T09:16:14.371Z,11.73
2022-11-28T09:19:17.892Z,12.18
2022-11-28T09:22:20.963Z,12.10
2022-11-28T09:25:24.234Z,11.60
2022-11-28T09:28:28.816Z,11.15
2022-11-28T09:31:33.196Z,11.20
2022-11-28T09:34:36.286Z,12.05
2022-11-28T09:37:39.291Z,12.25
2022-11-28T09:40:44.842Z,11.35
2022-11-28T09:43:54.552Z,11.50
2022-11-28T09:47:03.204Z,12.80
2022-11-28T09:50:10.883Z,11.50
2022-11-28T09:53:24.472Z,12.25
2022-11-28T09:56:28.318Z,11.48
2022-11-28T09:59:32.010Z,10.93
2022-11-28T10:02:44.435Z,12.60
2022-11-28T10:05:57.891Z,11.15
2022-11-28T10:09:26.778Z,12.20
2022-11-28T10:12:44.982Z,13.63
2022-11-28T10:15:58.309Z,21.38
2022-11-28T10:19:25.518Z,25.00
2022-11-28T10:22:39.021Z,32.17
2022-11-28T10:25:45.142Z,40.30
2022-11-28T10:28:51.218Z,49.38
2022-11-28T10:31:58.433Z,57.15
2022-11-28T10:35:06.971Z,61.80
2022-11-28T10:38:14.036Z,62.42
2022-11-28T10:41:22.838Z,61.15
2022-11-28T10:44:32.182Z,62.33
2022-11-28T10:47:51.760Z,61.33
2022-11-28T10:51:02.064Z,58.25
2022-11-28T10:54:20.856Z,59.53
2022-11-28T10:57:28.870Z,58.35
2022-11-28T11:00:32.669Z,58.45
2022-11-28T11:03:37.154Z,56.15
2022-11-28T11:07:06.560Z,55.55
2022-11-28T11:10:16.567Z,56.50
2022-11-28T11:13:23.679Z,54.72
2022-11-28T11:16:26.898Z,53.08
2022-11-28T11:19:32.177Z,53.03
2022-11-28T11:22:36.563Z,52.00
2022-11-28T11:25:48.423Z,52.78
2022-11-28T11:28:55.939Z,51.10
2022-11-28T11:32:05.983Z,51.20
2022-11-28T11:35:18.834Z,48.80
2022-11-28T11:38:36.209Z,48.83
2022-11-28T11:41:43.193Z,50.22
2022-11-28T11:44:46.187Z,47.40
2022-11-28T11:47:49.217Z,46.40
2022-11-28T11:50:55.489Z,48.13
2022-11-28T11:54:04.542Z,46.58
2022-11-28T11:57:31.925Z,43.22
2022-11-28T12:00:40.276Z,42.83
2022-11-28T12:03:54.421Z,43.53
2022-11-28T12:06:59.826Z,41.75
2022-11-28T12:10:07.837Z,41.35
2022-11-28T12:13:20.012Z,40.30
2022-11-28T12:16:41.376Z,40.05
2022-11-28T12:19:55.598Z,38.85
2022-11-28T12:23:09.972Z,36.63
2022-11-28T12:26:24.739Z,37.80
2022-11-28T12:29:42.012Z,37.30
2022-11-28T12:32:57.018Z,35.53
2022-11-28T12:36:11.966Z,36.13
2022-11-28T12:39:20.564Z,35.25
2022-11-28T12:42:50.755Z,34.15
2022-11-28T12:46:00.749Z,34.67
2022-11-28T12:49:14.260Z,35.00
2022-11-28T12:52:28.771Z,33.95
2022-11-28T12:55:37.627Z,31.73
2022-11-28T12:58:48.556Z,34.60
2022-11-28T13:02:04.043Z,34.38
2022-11-28T13:05:26.118Z,35.10
2022-11-28T13:08:52.495Z,32.90
2022-11-28T13:12:08.125Z,34.03
2022-11-28T13:15:18.788Z,33.53
2022-11-28T13:18:35.060Z,33.33
2022-11-28T13:21:45.942Z,31.98
2022-11-28T13:25:00.679Z,32.80
2022-11-28T13:28:12.743Z,31.55
2022-11-28T13:31:27.820Z,31.70
2022-11-28T13:34:31.950Z,30.70
2022-11-28T13:41:35.346Z,30.73
2022-11-28T13:44:43.521Z,30.50
2022-11-28T13:47:48.233Z,28.98
2022-11-28T13:51:00.832Z,29.35
2022-11-28T13:54:46.427Z,28.05
2022-11-28T13:57:49.706Z,28.48
2022-11-28T14:01:09.662Z,28.88
2022-11-28T14:04:15.838Z,29.35
2022-11-28T14:07:28.985Z,28.27
2022-11-28T14:11:05.686Z,27.92
2022-11-28T14:14:23.960Z,27.20
2022-11-28T14:17:43.081Z,26.77
2022-11-28T14:20:58.054Z,26.48
2022-11-28T14:24:10.615Z,25.33
2022-11-28T14:27:21.049Z,25.60
2022-11-28T14:30:30.555Z,25.63
2022-11-28T14:33:38.005Z,25.88
2022-11-28T14:36:43.794Z,25.30
2022-11-28T14:39:47.750Z,25.02
2022-11-28T14:43:26.259Z,24.13
2022-11-28T14:46:31.826Z,24.17
2022-11-28T14:49:34.922Z,24.30
2022-11-28T14:52:41.139Z,23.13
2022-11-28T14:55:45.562Z,24.20
2022-11-28T14:58:49.601Z,22.38
2022-11-28T15:02:00.179Z,22.90
2022-11-28T15:05:13.474Z,22.33
2022-11-28T15:08:40.911Z,22.45
2022-11-28T15:12:02.295Z,22.52
2022-11-28T15:15:08.077Z,23.75
2022-11-28T15:18:12.399Z,22.33
2022-11-28T15:21:18.241Z,21.50
2022-11-28T15:24:28.503Z,21.13
2022-11-28T15:27:31.658Z,22.13
2022-11-28T15:30:35.798Z,20.73
2022-11-28T15:33:40.906Z,20.83
2022-11-28T15:36:44.246Z,20.40
2022-11-28T15:39:50.838Z,19.13
2022-11-28T15:42:54.173Z,20.70
2022-11-28T15:46:00.090Z,20.13
2022-11-28T15:49:05.261Z,19.23
2022-11-28T15:52:08.749Z,19.95
2022-11-28T15:55:18.042Z,18.88
2022-11-28T15:58:23.525Z,19.55
2022-11-28T16:01:28.256Z,20.25
2022-11-28T16:04:32.892Z,19.05
2022-11-28T16:07:42.675Z,19.05
2022-11-28T16:10:47.378Z,19.20
2022-11-28T16:13:51.457Z,18.20
2022-11-28T16:16:55.189Z,18.42
2022-11-28T16:19:59.308Z,17.52
2022-11-28T16:23:10.188Z,18.25
2022-11-28T16:26:26.280Z,17.00
2022-11-28T16:29:43.223Z,16.80
2022-11-28T16:32:46.411Z,17.83
2022-11-28T16:35:49.408Z,16.08
2022-11-28T16:38:55.132Z,16.52
2022-11-28T16:42:08.739Z,16.02
2022-11-28T16:45:17.441Z,16.75
2022-11-28T16:48:20.650Z,15.45
2022-11-28T16:51:35.644Z,16.55
2022-11-28T16:54:39.087Z,16.05
2022-11-28T16:57:47.963Z,15.93
2022-11-28T17:01:01.647Z,16.30
2022-11-28T17:04:05.565Z,14.45
2022-11-28T17:07:11.337Z,15.07
2022-11-28T17:10:14.854Z,15.25
2022-11-28T17:13:19.291Z,14.63
2022-11-28T17:16:23.963Z,14.98
2022-11-28T17:19:27.138Z,14.73
2022-11-28T17:22:40.516Z,15.45
2022-11-28T17:25:44.015Z,14.57
2022-11-28T17:28:48.406Z,15.32
2022-11-28T17:31:51.680Z,14.95
2022-11-28T17:34:54.735Z,15.13
2022-11-28T17:37:57.680Z,13.32
2022-11-28T17:41:01.888Z,14.13
2022-11-28T17:44:06.834Z,14.70
2022-11-28T17:47:09.767Z,14.13
2022-11-28T17:50:14.776Z,13.00
2022-11-28T17:53:20.171Z,13.55
2022-11-28T17:56:23.380Z,13.57
2022-11-28T17:59:29.272Z,13.15
2022-11-28T18:02:32.820Z,12.50
2022-11-28T18:05:37.902Z,13.55
2022-11-28T18:08:41.338Z,12.05
2022-11-28T18:11:46.306Z,13.07
2022-11-28T18:14:50.861Z,13.55
2022-11-28T18:17:54.322Z,12.50
2022-11-28T18:20:58.489Z,13.18
2022-11-28T18:24:01.704Z,13.38
2022-11-28T18:27:06.066Z,12.60
2022-11-28T18:30:13.527Z,12.82
2022-11-28T18:33:17.659Z,12.05
2022-11-28T18:36:22.805Z,13.00
2022-11-28T18:39:25.824Z,13.27
2022-11-28T18:42:28.778Z,12.88
2022-11-28T18:45:33.939Z,11.43
2022-11-28T18:48:39.725Z,12.27
2022-11-28T18:51:42.768Z,12.27
2022-11-28T18:54:46.797Z,12.27
2022-11-28T18:57:49.893Z,13.25
2022-11-28T19:00:54.528Z,11.75
2022-11-28T19:03:59.236Z,12.32
2022-11-28T19:07:04.003Z,12.10
2022-11-28T19:10:08.389Z,12.55
2022-11-28T19:13:11.607Z,12.13
2022-11-28T19:16:18.135Z,11.77
2022-11-28T19:19:21.930Z,12.18
2022-11-28T19:22:25.350Z,11.65
2022-11-28T19:25:28.338Z,11.50
2022-11-28T19:28:32.504Z,11.93
2022-11-28T19:31:38.669Z,11.88
2022-11-28T19:34:41.783Z,11.65
2022-11-28T19:37:44.843Z,11.15
2022-11-28T19:40:48.483Z,11.80
2022-11-28T19:43:52.653Z,12.60
2022-11-28T19:46:57.410Z,13.05
2022-11-28T19:50:00.409Z,12.18
2022-11-28T19:53:03.412Z,13.30
2022-11-28T19:56:09.081Z,13.65
2022-11-28T19:59:13.118Z,13.50
2022-11-28T20:02:21.560Z,13.02
2022-11-28T20:05:24.760Z,12.82
2022-11-28T20:08:28.686Z,13.43
2022-11-28T20:11:34.203Z,14.57
2022-11-28T20:14:37.665Z,14.68
2022-11-28T20:17:42.011Z,14.85
2022-11-28T20:20:45.195Z,14.80
2022-11-28T20:23:50.346Z,14.88
2022-11-28T20:26:53.918Z,16.00
2022-11-28T20:29:56.974Z,14.38
2022-11-28T20:33:01.370Z,15.20
2022-11-28T20:36:08.955Z,14.82
2022-11-28T20:39:12.839Z,16.33
2022-11-28T20:42:16.047Z,15.30
2022-11-28T20:45:19.161Z,15.57
2022-11-28T20:48:23.530Z,16.40
2022-11-28T20:51:30.122Z,16.25
2022-11-28T20:54:33.224Z,16.45
2022-11-28T20:57:36.246Z,17.10
2022-11-28T21:00:39.244Z,16.38
2022-11-28T21:03:43.727Z,16.48
2022-11-28T21:06:49.216Z,16.85
2022-11-28T21:09:54.086Z,16.85
2022-11-28T21:12:57.295Z,16.85
2022-11-28T21:16:06.061Z,16.63
2022-11-28T21:19:10.549Z,17.17
2022-11-28T21:22:13.523Z,18.00
2022-11-28T21:25:16.674Z,17.55
2022-11-28T21:28:19.658Z,17.60
2022-11-28T21:31:24.363Z,17.88
2022-11-28T21:34:28.747Z,18.73
2022-11-28T21:37:31.746Z,16.95
2022-11-28T21:40:35.330Z,17.88
2022-11-28T21:43:39.147Z,17.40
2022-11-28T21:46:42.178Z,17.58
2022-11-28T21:49:46.944Z,17.35
2022-11-28T21:52:50.099Z,17.45
2022-11-28T21:55:55.167Z,17.33
2022-11-28T21:58:58.610Z,17.63
2022-11-28T22:02:02.237Z,17.80
2022-11-28T22:05:09.293Z,16.95
2022-11-28T22:08:12.299Z,16.55
2022-11-28T22:11:16.197Z,15.85
2022-11-28T22:14:19.662Z,17.30
2022-11-28T22:17:23.530Z,17.50
2022-11-28T22:20:27.867Z,16.60
2022-11-28T22:23:31.256Z,16.85
2022-11-28T22:26:34.680Z,17.83
2022-11-28T22:29:39.445Z,18.42
2022-11-28T22:32:43.141Z,19.23
2022-11-28T22:35:47.646Z,18.27
2022-11-28T22:38:55.554Z,16.98
2022-11-28T22:41:59.752Z,17.48
2022-11-28T22:45:02.818Z,15.98
2022-11-28T22:48:06.613Z,16.23
2022-11-28T22:51:14.369Z,16.02
2022-11-28T22:54:17.489Z,16.60
2022-11-28T22:57:20.442Z,15.32
2022-11-28T23:00:23.966Z,14.45
2022-11-28T23:03:27.414Z,14.30
2022-11-28T23:06:33.625Z,14.40
2022-11-28T23:09:36.634Z,13.38
2022-11-28T23:12:40.730Z,13.27
2022-11-28T23:15:48.427Z,13.93
2022-11-28T23:18:57.648Z,13.65
2022-11-28T23:22:02.021Z,13.27
2022-11-28T23:25:05.918Z,13.55
2022-11-28T23:28:08.874Z,13.23
2022-11-28T23:31:17.467Z,14.02
2022-11-28T23:34:20.748Z,13.43
2022-11-28T23:37:25.367Z,12.60
2022-11-28T23:40:28.858Z,13.68
2022-11-28T23:43:32.417Z,13.65
2022-11-28T23:46:35.647Z,12.77
2022-11-28T23:49:38.659Z,12.75
2022-11-28T23:52:43.119Z,13.35
2022-11-28T23:55:46.096Z,12.32
2022-11-28T23:58:49.704Z,12.95
